createdAt,value
2023-05-17T00:00:43.777Z,8.35
2023-05-17T00:02:46.805Z,7.45
2023-05-17T00:04:49.730Z,8.05
2023-05-17T00:06:52.607Z,8.18
2023-05-17T00:08:55.096Z,8.10
2023-05-17T00:10:57.619Z,7.30
2023-05-17T00:13:00.124Z,7.68
2023-05-17T00:15:02.916Z,6.90
2023-05-17T00:17:05.561Z,6.57
2023-05-17T00:19:10.613Z,7.82
2023-05-17T00:21:13.751Z,6.43
2023-05-17T00:23:16.109Z,6.95
2023-05-17T00:25:19.008Z,7.28
2023-05-17T00:27:22.309Z,7.10
2023-05-17T00:29:25.610Z,7.30
2023-05-17T00:31:28.412Z,5.72
2023-05-17T00:33:32.390Z,6.43
2023-05-17T00:35:35.319Z,6.07
2023-05-17T00:37:38.376Z,6.22
2023-05-17T00:39:41.427Z,6.18
2023-05-17T00:41:44.309Z,6.38
2023-05-17T00:43:47.229Z,5.90
2023-05-17T00:45:50.988Z,5.70
2023-05-17T00:47:53.794Z,6.40
2023-05-17T00:49:56.809Z,5.55
2023-05-17T00:52:00.807Z,5.90
2023-05-17T00:54:05.069Z,6.18
2023-05-17T00:56:07.937Z,5.18
2023-05-17T00:58:13.176Z,5.88
2023-05-17T01:00:16.273Z,5.95
2023-05-17T01:02:20.413Z,4.88
2023-05-17T01:04:24.317Z,5.53
2023-05-17T01:06:27.161Z,5.18
2023-05-17T01:08:31.135Z,6.25
2023-05-17T01:11:02.074Z,6.97
2023-05-17T01:13:18.870Z,6.57
2023-05-17T01:15:32.261Z,7.03
2023-05-17T01:17:42.911Z,6.47
2023-05-17T01:19:51.500Z,7.22
2023-05-17T01:22:18.226Z,6.85
2023-05-17T01:24:40.745Z,9.27
2023-05-17T01:26:47.716Z,8.50
2023-05-17T01:28:55.678Z,9.10
2023-05-17T01:31:01.790Z,8.90
2023-05-17T01:33:08.000Z,9.55
2023-05-17T01:35:15.863Z,8.80
2023-05-17T01:37:18.466Z,10.77
2023-05-17T01:39:22.534Z,9.57
2023-05-17T01:41:47.409Z,9.68
2023-05-17T01:44:10.594Z,10.90
2023-05-17T01:46:34.765Z,10.07
2023-05-17T01:48:46.086Z,11.43
2023-05-17T01:50:53.028Z,9.35
2023-05-17T01:53:03.921Z,11.65
2023-05-17T01:55:46.097Z,10.60
2023-05-17T01:57:54.358Z,10.98
2023-05-17T02:00:00.876Z,9.65
2023-05-17T02:02:09.862Z,9.52
2023-05-17T02:04:12.842Z,9.40
2023-05-17T02:06:15.552Z,9.52
2023-05-17T02:08:18.782Z,9.43
2023-05-17T02:10:21.675Z,9.32
2023-05-17T02:12:26.185Z,11.02
2023-05-17T02:14:29.206Z,9.88
2023-05-17T02:16:33.335Z,10.95
2023-05-17T02:18:38.017Z,12.13
2023-05-17T02:20:41.806Z,10.55
2023-05-17T02:22:44.534Z,9.70
2023-05-17T02:24:47.835Z,10.48
2023-05-17T02:26:50.312Z,9.27
2023-05-17T02:28:53.069Z,10.05
2023-05-17T02:30:56.869Z,9.80
2023-05-17T02:32:59.960Z,10.35
2023-05-17T02:35:02.627Z,9.93
2023-05-17T02:37:05.236Z,10.88
2023-05-17T02:39:07.760Z,9.15
2023-05-17T02:41:10.382Z,10.98
2023-05-17T02:43:12.939Z,10.27
2023-05-17T02:45:15.750Z,9.90
2023-05-17T02:47:18.537Z,9.32
2023-05-17T02:49:21.620Z,7.95
2023-05-17T02:51:24.668Z,8.00
2023-05-17T02:53:27.585Z,8.85
2023-05-17T02:55:30.449Z,8.15
2023-05-17T02:57:33.062Z,9.60
2023-05-17T02:59:35.956Z,9.30
2023-05-17T03:01:38.945Z,7.63
2023-05-17T03:03:41.762Z,7.70
2023-05-17T03:05:45.129Z,8.57
2023-05-17T03:07:48.651Z,8.68
2023-05-17T03:09:51.093Z,8.18
2023-05-17T03:11:54.254Z,8.77
2023-05-17T03:14:01.527Z,8.73
2023-05-17T03:16:06.525Z,8.73
2023-05-17T03:18:10.053Z,7.80
2023-05-17T03:20:15.244Z,7.30
2023-05-17T03:22:18.420Z,8.07
2023-05-17T03:24:20.993Z,8.43
2023-05-17T03:26:25.206Z,8.32
2023-05-17T03:28:28.207Z,8.68
2023-05-17T03:30:31.833Z,8.93
2023-05-17T03:32:35.064Z,8.75
2023-05-17T03:34:38.014Z,8.48
2023-05-17T03:36:40.900Z,8.13
2023-05-17T03:38:43.943Z,10.07
2023-05-17T03:40:46.297Z,9.10
2023-05-17T03:42:49.103Z,10.10
2023-05-17T03:44:52.676Z,11.50
2023-05-17T03:46:56.276Z,10.60
2023-05-17T03:49:00.019Z,10.07
2023-05-17T03:51:03.107Z,11.43
2023-05-17T03:53:06.669Z,10.23
2023-05-17T03:55:11.105Z,10.13
2023-05-17T03:57:14.351Z,10.20
2023-05-17T03:59:17.505Z,11.27
2023-05-17T04:01:21.272Z,9.80
2023-05-17T04:03:24.371Z,11.35
2023-05-17T04:05:27.934Z,10.25
2023-05-17T04:07:31.465Z,10.85
2023-05-17T04:09:35.637Z,9.30
2023-05-17T04:11:38.792Z,9.50
2023-05-17T04:13:43.073Z,10.13
2023-05-17T04:15:46.057Z,9.77
2023-05-17T04:17:49.038Z,11.65
2023-05-17T04:19:52.040Z,10.15
2023-05-17T04:21:55.606Z,10.88
2023-05-17T04:24:01.272Z,11.23
2023-05-17T04:26:06.557Z,10.93
2023-05-17T04:28:13.751Z,10.43
2023-05-17T04:30:16.686Z,10.68
2023-05-17T04:32:20.118Z,11.88
2023-05-17T04:34:25.598Z,10.05
2023-05-17T04:36:30.661Z,10.70
2023-05-17T04:38:33.596Z,11.10
2023-05-17T04:40:38.273Z,11.85
2023-05-17T04:42:41.588Z,12.13
2023-05-17T04:44:44.853Z,10.75
2023-05-17T04:46:47.483Z,11.70
2023-05-17T04:48:51.936Z,11.65
2023-05-17T04:50:54.955Z,10.43
2023-05-17T04:52:57.674Z,10.50
2023-05-17T04:55:00.421Z,12.05
2023-05-17T04:57:04.412Z,13.55
2023-05-17T04:59:30.502Z,12.18
2023-05-17T05:01:35.912Z,12.32
2023-05-17T05:03:39.154Z,11.93
2023-05-17T05:05:44.468Z,12.75
2023-05-17T05:07:47.906Z,11.20
2023-05-17T05:09:50.971Z,11.68
2023-05-17T05:11:54.448Z,11.45
2023-05-17T05:13:57.303Z,11.90
2023-05-17T05:15:59.952Z,10.95
2023-05-17T05:18:03.373Z,10.20
2023-05-17T05:20:07.286Z,11.95
2023-05-17T05:22:09.825Z,11.40
2023-05-17T05:24:13.127Z,11.68
2023-05-17T05:26:16.172Z,12.32
2023-05-17T05:28:18.885Z,11.65
2023-05-17T05:30:24.678Z,10.82
2023-05-17T05:32:30.372Z,10.75
2023-05-17T05:34:32.906Z,10.13
2023-05-17T05:36:35.515Z,10.55
2023-05-17T05:38:38.187Z,11.25
2023-05-17T05:40:43.446Z,10.43
2023-05-17T05:42:46.052Z,11.05
2023-05-17T05:44:49.041Z,10.43
2023-05-17T05:46:52.832Z,12.43
2023-05-17T05:48:55.539Z,10.63
2023-05-17T05:50:58.072Z,10.52
2023-05-17T05:53:14.324Z,10.60
2023-05-17T05:55:23.420Z,13.45
2023-05-17T05:57:26.341Z,11.77
2023-05-17T05:59:29.179Z,11.73
2023-05-17T06:01:34.476Z,11.48
2023-05-17T06:03:38.411Z,10.95
2023-05-17T06:05:41.207Z,11.73
2023-05-17T06:07:44.102Z,11.75
2023-05-17T06:09:46.635Z,12.35
2023-05-17T06:11:51.587Z,10.50
2023-05-17T06:13:54.438Z,10.35
2023-05-17T06:15:57.372Z,11.65
2023-05-17T06:18:00.290Z,10.40
2023-05-17T06:20:03.709Z,10.63
2023-05-17T06:22:06.496Z,11.23
2023-05-17T06:24:09.660Z,11.85
2023-05-17T06:26:12.279Z,11.23
2023-05-17T06:28:15.603Z,11.18
2023-05-17T06:30:21.044Z,12.25
2023-05-17T06:32:23.757Z,11.43
2023-05-17T06:34:26.683Z,11.25
2023-05-17T06:36:30.670Z,11.15
2023-05-17T06:38:35.852Z,10.13
2023-05-17T06:40:38.715Z,10.13
2023-05-17T06:42:41.765Z,11.05
2023-05-17T06:44:44.583Z,11.80
2023-05-17T06:46:47.701Z,10.52
2023-05-17T06:48:51.395Z,11.68
2023-05-17T06:50:54.247Z,10.98
2023-05-17T06:52:57.110Z,10.27
2023-05-17T06:54:59.882Z,11.52
2023-05-17T06:57:03.967Z,10.13
2023-05-17T06:59:06.876Z,10.02
2023-05-17T07:01:09.716Z,10.13
2023-05-17T07:03:12.867Z,9.13
2023-05-17T07:05:16.066Z,8.75
2023-05-17T07:07:18.715Z,9.52
2023-05-17T07:09:22.686Z,9.55
2023-05-17T07:11:25.274Z,10.10
2023-05-17T07:13:27.865Z,8.65
2023-05-17T07:15:31.155Z,10.15
2023-05-17T07:17:34.788Z,7.85
2023-05-17T07:19:38.022Z,8.25
2023-05-17T07:21:40.736Z,9.43
2023-05-17T07:23:43.352Z,8.40
2023-05-17T07:25:46.738Z,8.10
2023-05-17T07:27:49.634Z,7.80
2023-05-17T07:29:52.859Z,8.07
2023-05-17T07:31:56.630Z,7.45
2023-05-17T07:33:59.273Z,9.43
2023-05-17T07:36:01.965Z,6.93
2023-05-17T07:38:05.508Z,7.90
2023-05-17T07:40:09.169Z,7.55
2023-05-17T07:42:12.402Z,7.20
2023-05-17T07:44:14.967Z,6.00
2023-05-17T07:46:18.611Z,7.38
2023-05-17T07:48:21.640Z,6.68
2023-05-17T07:50:24.785Z,8.23
2023-05-17T07:52:27.796Z,7.05
2023-05-17T07:54:31.460Z,6.55
2023-05-17T07:56:34.839Z,6.68
2023-05-17T07:58:37.673Z,7.35
2023-05-17T08:00:43.243Z,7.10
2023-05-17T08:02:46.803Z,6.72
2023-05-17T08:04:50.481Z,6.05
2023-05-17T08:06:55.808Z,6.38
2023-05-17T08:08:59.508Z,5.82
2023-05-17T08:11:02.762Z,6.18
2023-05-17T08:13:06.542Z,5.60
2023-05-17T08:15:10.024Z,6.85
2023-05-17T08:17:12.982Z,4.45
2023-05-17T08:19:17.014Z,5.32
2023-05-17T08:21:20.688Z,5.45
2023-05-17T08:23:23.403Z,5.80
2023-05-17T08:25:26.723Z,5.30
2023-05-17T08:27:31.875Z,5.35
2023-05-17T08:29:36.099Z,5.18
2023-05-17T08:31:39.594Z,5.13
2023-05-17T08:33:43.386Z,6.18
2023-05-17T08:35:48.360Z,5.93
2023-05-17T08:37:52.213Z,5.18
2023-05-17T08:39:55.723Z,5.85
2023-05-17T08:42:00.068Z,5.88
2023-05-17T08:44:04.637Z,5.35
2023-05-17T08:46:09.812Z,6.25
2023-05-17T08:48:12.916Z,6.25
2023-05-17T08:50:15.792Z,7.25
2023-05-17T08:52:19.010Z,5.97
2023-05-17T08:54:23.105Z,5.25
2023-05-17T08:56:29.636Z,5.28
2023-05-17T08:58:52.233Z,5.30
2023-05-17T09:01:00.396Z,5.05
2023-05-17T09:03:03.296Z,4.80
2023-05-17T09:05:07.341Z,5.35
2023-05-17T09:07:10.281Z,4.43
2023-05-17T09:09:14.204Z,5.25
2023-05-17T09:11:27.283Z,5.70
2023-05-17T09:13:29.902Z,5.70
2023-05-17T09:15:34.648Z,4.50
2023-05-17T09:17:38.471Z,5.03
2023-05-17T09:19:46.217Z,5.57
2023-05-17T09:21:49.551Z,5.93
2023-05-17T09:24:05.575Z,4.90
2023-05-17T09:26:10.159Z,5.20
2023-05-17T09:28:13.140Z,4.95
2023-05-17T09:30:16.316Z,5.07
2023-05-17T09:32:22.940Z,5.13
2023-05-17T09:36:28.806Z,5.85
2023-05-17T09:38:31.622Z,5.03
2023-05-17T09:40:35.143Z,5.45
2023-05-17T09:42:39.613Z,4.43
2023-05-17T09:44:50.570Z,4.57
2023-05-17T09:46:53.521Z,4.82
2023-05-17T09:48:57.150Z,4.22
2023-05-17T09:51:01.104Z,4.97
2023-05-17T09:53:03.560Z,4.47
2023-05-17T09:55:07.995Z,4.88
2023-05-17T09:57:11.068Z,4.63
2023-05-17T09:59:16.496Z,4.13
2023-05-17T10:01:20.602Z,5.28
2023-05-17T10:03:24.706Z,4.82
2023-05-17T10:05:28.462Z,5.07
2023-05-17T10:07:32.389Z,5.00
2023-05-17T10:09:37.519Z,5.05
2023-05-17T10:11:41.889Z,4.47
2023-05-17T10:13:53.754Z,4.57
2023-05-17T10:15:57.456Z,4.00
2023-05-17T10:18:01.157Z,4.72
2023-05-17T10:20:07.806Z,5.32
2023-05-17T10:24:23.549Z,4.13
2023-05-17T10:26:26.850Z,4.53
2023-05-17T10:28:30.643Z,4.93
2023-05-17T10:30:35.048Z,4.43
2023-05-17T10:32:38.858Z,6.65
2023-05-17T10:34:42.061Z,4.47
2023-05-17T10:36:45.987Z,4.32
2023-05-17T10:38:49.052Z,3.83
2023-05-17T10:40:54.646Z,4.25
2023-05-17T10:42:59.319Z,4.65
2023-05-17T10:45:04.776Z,4.13
2023-05-17T10:47:09.705Z,5.10
2023-05-17T10:49:12.656Z,4.35
2023-05-17T10:51:19.118Z,4.45
2023-05-17T10:53:21.825Z,4.00
2023-05-17T10:55:26.226Z,4.57
2023-05-17T10:57:50.778Z,4.60
2023-05-17T11:00:06.742Z,4.47
2023-05-17T11:02:11.005Z,4.57
2023-05-17T11:04:41.924Z,3.50
2023-05-17T11:06:46.535Z,4.00
2023-05-17T11:09:14.351Z,3.97
2023-05-17T11:11:21.748Z,4.63
2023-05-17T11:13:29.716Z,4.55
2023-05-17T11:15:34.073Z,4.85
2023-05-17T11:17:51.977Z,4.63
2023-05-17T11:19:54.793Z,4.93
2023-05-17T11:21:58.095Z,5.25
2023-05-17T11:24:04.359Z,4.93
2023-05-17T11:26:23.709Z,4.03
2023-05-17T11:28:27.254Z,4.45
2023-05-17T11:30:32.532Z,4.88
2023-05-17T11:32:35.564Z,4.00
2023-05-17T11:34:39.234Z,5.13
2023-05-17T11:36:55.957Z,4.60
2023-05-17T11:39:15.832Z,4.53
2023-05-17T11:43:31.385Z,4.40
2023-05-17T11:45:44.883Z,4.85
2023-05-17T11:47:49.148Z,4.80
2023-05-17T11:49:56.392Z,5.07
2023-05-17T11:52:00.739Z,4.32
2023-05-17T11:54:04.758Z,4.47
2023-05-17T11:56:09.238Z,4.22
2023-05-17T11:58:14.845Z,5.05
2023-05-17T12:00:29.229Z,4.80
2023-05-17T12:02:33.435Z,4.70
2023-05-17T12:04:38.192Z,4.57
2023-05-17T12:06:42.978Z,4.90
2023-05-17T12:08:47.679Z,5.60
2023-05-17T12:10:52.770Z,5.13
2023-05-17T12:12:57.713Z,5.25
2023-05-17T12:15:00.750Z,4.72
2023-05-17T12:17:06.568Z,5.57
2023-05-17T12:19:22.811Z,5.40
2023-05-17T12:21:26.367Z,4.57
2023-05-17T12:23:37.454Z,4.65
2023-05-17T12:25:40.152Z,5.05
2023-05-17T12:27:43.123Z,5.45
2023-05-17T12:29:46.186Z,5.15
2023-05-17T12:31:51.313Z,5.32
2023-05-17T12:33:54.657Z,5.25
2023-05-17T12:35:58.727Z,5.05
2023-05-17T12:38:02.126Z,5.10
2023-05-17T12:40:06.221Z,4.88
2023-05-17T12:42:10.010Z,5.18
2023-05-17T12:44:16.401Z,5.70
2023-05-17T12:46:23.803Z,5.88
2023-05-17T12:48:27.636Z,5.63
2023-05-17T12:50:32.456Z,5.35
2023-05-17T12:52:37.217Z,5.13
2023-05-17T12:54:40.249Z,5.38
2023-05-17T12:56:46.933Z,5.95
2023-05-17T12:59:07.759Z,6.43
2023-05-17T13:01:15.352Z,6.13
2023-05-17T13:03:18.177Z,6.40
2023-05-17T13:05:22.359Z,6.00
2023-05-17T13:07:26.056Z,6.03
2023-05-17T13:09:33.265Z,5.50
2023-05-17T13:11:41.048Z,6.72
2023-05-17T13:13:43.998Z,6.03
2023-05-17T13:15:50.630Z,5.47
2023-05-17T13:17:53.885Z,6.35
2023-05-17T13:19:58.365Z,6.22
2023-05-17T13:22:01.528Z,6.55
2023-05-17T13:24:04.159Z,6.05
2023-05-17T13:26:06.867Z,5.63
2023-05-17T13:28:09.736Z,5.68
2023-05-17T13:30:13.581Z,5.97
2023-05-17T13:32:16.389Z,6.22
2023-05-17T13:34:21.611Z,6.80
2023-05-17T13:36:24.644Z,6.40
2023-05-17T13:38:27.549Z,6.40
2023-05-17T13:40:30.423Z,5.82
2023-05-17T13:42:34.038Z,7.78
2023-05-17T13:44:36.661Z,6.82
2023-05-17T13:46:39.289Z,6.35
2023-05-17T13:48:42.987Z,6.45
2023-05-17T13:50:46.351Z,5.95
2023-05-17T13:52:49.013Z,5.50
2023-05-17T13:54:51.842Z,6.20
2023-05-17T13:56:56.149Z,5.35
2023-05-17T13:58:59.220Z,5.90
2023-05-17T14:01:02.449Z,5.70
2023-05-17T14:03:05.463Z,6.82
2023-05-17T14:05:10.340Z,5.68
2023-05-17T14:07:13.925Z,6.40
2023-05-17T14:09:17.335Z,7.03
2023-05-17T14:11:20.412Z,6.18
2023-05-17T14:13:23.666Z,6.65
2023-05-17T14:15:27.921Z,6.28
2023-05-17T14:17:31.181Z,6.60
2023-05-17T14:19:34.472Z,6.22
2023-05-17T14:21:37.631Z,5.65
2023-05-17T14:23:40.642Z,6.28
2023-05-17T14:25:44.366Z,7.10
2023-05-17T14:27:47.529Z,7.10
2023-05-17T14:29:50.893Z,6.80
2023-05-17T14:31:53.959Z,6.70
2023-05-17T14:33:57.782Z,7.35
2023-05-17T14:36:01.123Z,7.35
2023-05-17T14:38:03.724Z,7.10
2023-05-17T14:40:07.390Z,6.72
2023-05-17T14:42:10.010Z,6.78
2023-05-17T14:44:12.775Z,6.50
2023-05-17T14:46:15.663Z,6.65
2023-05-17T14:48:18.663Z,8.70
2023-05-17T14:50:22.030Z,8.68
2023-05-17T14:52:25.182Z,6.85
2023-05-17T14:54:30.322Z,7.93
2023-05-17T14:56:33.350Z,7.65
2023-05-17T14:58:36.169Z,6.82
2023-05-17T15:00:39.031Z,6.18
2023-05-17T15:02:41.625Z,6.47
2023-05-17T15:04:45.329Z,8.52
2023-05-17T15:06:48.603Z,6.72
2023-05-17T15:08:52.469Z,6.45
2023-05-17T15:10:55.009Z,6.88
2023-05-17T15:12:58.142Z,7.03
2023-05-17T15:15:01.083Z,7.05
2023-05-17T15:17:04.739Z,6.47
2023-05-17T15:19:08.701Z,6.50
2023-05-17T15:21:11.768Z,6.80
2023-05-17T15:23:14.669Z,7.57
2023-05-17T15:25:17.608Z,6.25
2023-05-17T15:27:20.367Z,6.57
2023-05-17T15:29:23.047Z,5.80
2023-05-17T15:31:26.094Z,7.15
2023-05-17T15:33:29.475Z,7.40
2023-05-17T15:35:32.424Z,7.43
2023-05-17T15:37:35.387Z,5.90
2023-05-17T15:39:38.128Z,6.30
2023-05-17T15:41:41.385Z,5.78
2023-05-17T15:43:44.736Z,5.72
2023-05-17T15:45:47.455Z,5.22
2023-05-17T15:47:50.606Z,5.82
2023-05-17T15:49:53.386Z,5.30
2023-05-17T15:51:56.800Z,5.07
2023-05-17T15:53:59.834Z,6.53
2023-05-17T15:56:03.197Z,4.72
2023-05-17T15:58:08.207Z,5.38
2023-05-17T16:00:12.469Z,5.60
2023-05-17T16:02:15.043Z,4.50
2023-05-17T16:04:18.028Z,5.13
2023-05-17T16:06:22.824Z,4.47
2023-05-17T16:08:26.260Z,5.65
2023-05-17T16:10:29.375Z,5.15
2023-05-17T16:12:32.336Z,4.47
2023-05-17T16:14:35.107Z,4.90
2023-05-17T16:16:37.734Z,4.78
2023-05-17T16:18:41.033Z,5.15
2023-05-17T16:20:44.915Z,6.07
2023-05-17T16:22:48.850Z,6.03
2023-05-17T16:24:55.694Z,4.53
2023-05-17T16:26:59.369Z,5.18
2023-05-17T16:29:02.085Z,5.43
2023-05-17T16:31:06.289Z,5.75
2023-05-17T16:33:09.723Z,5.45
2023-05-17T16:35:14.492Z,5.40
2023-05-17T16:37:17.551Z,5.32
2023-05-17T16:39:20.690Z,4.50
2023-05-17T16:41:23.505Z,5.18
2023-05-17T16:43:26.977Z,5.32
2023-05-17T16:45:30.428Z,5.55
2023-05-17T16:47:33.896Z,5.00
2023-05-17T16:49:41.446Z,5.05
2023-05-17T16:51:46.126Z,5.32
2023-05-17T16:53:49.193Z,4.32
2023-05-17T16:55:51.877Z,5.00
2023-05-17T16:57:54.846Z,5.13
2023-05-17T16:59:57.929Z,4.57
2023-05-17T17:02:00.888Z,5.55
2023-05-17T17:04:04.350Z,4.95
2023-05-17T17:06:07.308Z,4.60
2023-05-17T17:08:09.783Z,5.88
2023-05-17T17:10:12.654Z,4.97
2023-05-17T17:12:23.973Z,5.07
2023-05-17T17:14:27.740Z,5.32
2023-05-17T17:16:32.308Z,5.47
2023-05-17T17:18:35.086Z,5.18
2023-05-17T17:20:37.705Z,6.20
2023-05-17T17:22:42.150Z,5.10
2023-05-17T17:24:45.050Z,4.85
2023-05-17T17:26:50.503Z,5.78
2023-05-17T17:28:53.317Z,5.40
2023-05-17T17:30:55.966Z,4.18
2023-05-17T17:32:59.079Z,5.90
2023-05-17T17:35:02.301Z,5.90
2023-05-17T17:37:04.917Z,5.63
2023-05-17T17:39:08.350Z,5.82
2023-05-17T17:41:11.347Z,4.97
2023-05-17T17:43:14.336Z,4.60
2023-05-17T17:45:16.893Z,5.38
2023-05-17T17:47:19.558Z,4.65
2023-05-17T17:49:22.903Z,4.78
2023-05-17T17:51:25.533Z,4.97
2023-05-17T17:53:29.080Z,4.75
2023-05-17T17:55:32.508Z,6.20
2023-05-17T17:57:35.178Z,5.43
2023-05-17T17:59:38.165Z,4.57
2023-05-17T18:01:41.252Z,4.55
2023-05-17T18:03:44.403Z,4.88
2023-05-17T18:05:47.063Z,4.75
2023-05-17T18:07:49.801Z,4.65
2023-05-17T18:09:53.015Z,5.18
2023-05-17T18:11:57.826Z,4.60
2023-05-17T18:14:02.795Z,5.15
2023-05-17T18:16:05.962Z,4.53
2023-05-17T18:18:09.483Z,5.18
2023-05-17T18:20:12.528Z,4.70
2023-05-17T18:22:17.415Z,5.43
2023-05-17T18:24:20.477Z,5.15
2023-05-17T18:26:23.629Z,4.65
2023-05-17T18:28:40.883Z,4.90
2023-05-17T18:30:44.695Z,4.78
2023-05-17T18:32:47.284Z,5.20
2023-05-17T18:34:50.026Z,5.45
2023-05-17T18:36:53.048Z,5.35
2023-05-17T18:38:59.134Z,4.95
2023-05-17T18:41:02.284Z,4.55
2023-05-17T18:43:05.566Z,4.78
2023-05-17T18:45:08.735Z,4.95
2023-05-17T18:47:12.501Z,4.95
2023-05-17T18:49:15.698Z,4.68
2023-05-17T18:51:18.507Z,5.03
2023-05-17T18:53:21.893Z,5.03
2023-05-17T18:55:25.029Z,5.55
2023-05-17T18:57:29.412Z,5.47
2023-05-17T18:59:32.255Z,5.25
2023-05-17T19:01:35.285Z,4.97
2023-05-17T19:03:38.079Z,4.47
2023-05-17T19:05:41.294Z,4.47
2023-05-17T19:07:44.636Z,4.90
2023-05-17T19:09:47.389Z,5.15
2023-05-17T19:11:50.527Z,5.30
2023-05-17T19:13:53.363Z,4.80
2023-05-17T19:15:55.978Z,5.05
2023-05-17T19:17:58.987Z,4.80
2023-05-17T19:20:02.879Z,5.18
2023-05-17T19:22:06.163Z,5.72
2023-05-17T19:24:09.127Z,6.00
2023-05-17T19:26:11.989Z,4.95
2023-05-17T19:28:15.495Z,5.90
2023-05-17T19:30:18.317Z,4.88
2023-05-17T19:32:23.052Z,5.32
2023-05-17T19:34:27.115Z,5.38
2023-05-17T19:36:29.970Z,5.35
2023-05-17T19:38:35.571Z,5.47
2023-05-17T19:40:41.263Z,6.07
2023-05-17T19:42:44.585Z,6.38
2023-05-17T19:44:47.464Z,5.88
2023-05-17T19:46:51.383Z,6.70
2023-05-17T19:48:54.394Z,6.03
2023-05-17T19:50:57.770Z,6.75
2023-05-17T19:53:00.895Z,6.47
2023-05-17T19:55:04.686Z,6.70
2023-05-17T19:57:08.786Z,5.57
2023-05-17T19:59:12.502Z,6.03
2023-05-17T20:01:15.615Z,6.15
2023-05-17T20:03:19.922Z,5.32
2023-05-17T20:05:25.989Z,4.95
2023-05-17T20:07:30.864Z,4.63
2023-05-17T20:09:33.692Z,5.55
2023-05-17T20:11:36.615Z,6.00
2023-05-17T20:13:40.694Z,6.40
2023-05-17T20:15:43.539Z,6.25
2023-05-17T20:17:46.172Z,6.75
2023-05-17T20:19:49.166Z,6.78
2023-05-17T20:21:51.716Z,6.65
2023-05-17T20:24:01.760Z,6.50
2023-05-17T20:26:04.662Z,6.78
2023-05-17T20:28:07.990Z,6.60
2023-05-17T20:30:12.197Z,6.85
2023-05-17T20:32:15.112Z,7.35
2023-05-17T20:34:17.984Z,6.93
2023-05-17T20:36:21.394Z,7.72
2023-05-17T20:38:24.070Z,7.25
2023-05-17T20:40:26.721Z,6.80
2023-05-17T20:42:31.419Z,8.00
2023-05-17T20:44:34.685Z,7.55
2023-05-17T20:46:38.065Z,7.13
2023-05-17T20:48:43.379Z,8.60
2023-05-17T20:50:47.934Z,6.82
2023-05-17T20:52:51.071Z,6.53
2023-05-17T20:54:53.663Z,7.65
2023-05-17T20:56:56.261Z,7.65
2023-05-17T20:58:59.023Z,7.38
2023-05-17T21:01:01.754Z,7.43
2023-05-17T21:03:05.100Z,6.95
2023-05-17T21:05:10.702Z,6.30
2023-05-17T21:07:13.640Z,5.90
2023-05-17T21:09:19.700Z,6.88
2023-05-17T21:11:22.490Z,7.38
2023-05-17T21:13:28.340Z,5.90
2023-05-17T21:15:31.197Z,6.35
2023-05-17T21:17:34.296Z,6.60
2023-05-17T21:19:37.508Z,8.25
2023-05-17T21:21:40.182Z,6.80
2023-05-17T21:23:42.974Z,7.97
2023-05-17T21:25:45.919Z,8.65
2023-05-17T21:27:48.384Z,6.10
2023-05-17T21:29:50.889Z,6.75
2023-05-17T21:31:53.542Z,7.00
2023-05-17T21:33:57.129Z,7.00
2023-05-17T21:35:59.714Z,6.50
2023-05-17T21:38:02.867Z,6.35
2023-05-17T21:40:07.273Z,7.43
2023-05-17T21:42:09.700Z,6.55
2023-05-17T21:44:12.336Z,7.07
2023-05-17T21:46:15.224Z,7.22
2023-05-17T21:48:18.117Z,6.63
2023-05-17T21:50:21.123Z,6.38
2023-05-17T21:52:23.913Z,5.65
2023-05-17T21:54:27.159Z,6.95
2023-05-17T21:56:30.287Z,6.57
2023-05-17T21:58:33.257Z,6.13
2023-05-17T22:00:35.944Z,5.95
2023-05-17T22:02:42.820Z,7.38
2023-05-17T22:04:45.469Z,5.80
2023-05-17T22:06:48.287Z,7.32
2023-05-17T22:08:50.702Z,6.35
2023-05-17T22:10:56.008Z,7.28
2023-05-17T22:12:58.658Z,6.78
2023-05-17T22:15:02.552Z,7.20
2023-05-17T22:17:08.801Z,6.65
2023-05-17T22:19:11.688Z,6.65
2023-05-17T22:21:15.208Z,6.63
2023-05-17T22:23:17.751Z,6.43
2023-05-17T22:25:21.355Z,6.10
2023-05-17T22:27:24.550Z,5.90
2023-05-17T22:29:27.018Z,5.35
2023-05-17T22:31:29.421Z,7.18
2023-05-17T22:33:32.106Z,5.88
2023-05-17T22:35:34.988Z,6.88
2023-05-17T22:37:38.031Z,5.55
2023-05-17T22:39:41.986Z,5.75
2023-05-17T22:41:44.908Z,6.45
2023-05-17T22:43:47.681Z,5.90
2023-05-17T22:45:50.851Z,7.22
2023-05-17T22:47:54.655Z,6.25
2023-05-17T22:49:58.079Z,6.15
2023-05-17T22:52:06.347Z,6.00
2023-05-17T22:54:08.905Z,6.57
2023-05-17T22:56:12.536Z,6.30
2023-05-17T22:58:16.308Z,6.07
2023-05-17T23:00:19.609Z,5.63
2023-05-17T23:02:22.527Z,5.82
2023-05-17T23:04:27.298Z,5.93
2023-05-17T23:06:32.492Z,6.28
2023-05-17T23:08:35.822Z,6.32
2023-05-17T23:10:38.573Z,6.45
2023-05-17T23:12:41.293Z,5.50
2023-05-17T23:14:44.537Z,5.63
2023-05-17T23:16:47.319Z,6.80
2023-05-17T23:18:50.358Z,7.10
2023-05-17T23:20:53.109Z,5.25
2023-05-17T23:22:56.610Z,6.50
2023-05-17T23:24:59.490Z,5.63
2023-05-17T23:27:01.974Z,5.82
2023-05-17T23:29:05.692Z,6.78
2023-05-17T23:31:09.027Z,5.82
2023-05-17T23:33:13.144Z,6.05
2023-05-17T23:35:15.997Z,6.13
2023-05-17T23:37:18.440Z,4.93
2023-05-17T23:39:20.986Z,5.15
2023-05-17T23:41:25.603Z,6.03
2023-05-17T23:43:27.965Z,6.75
2023-05-17T23:45:31.077Z,5.75
2023-05-17T23:47:34.426Z,6.55
2023-05-17T23:49:37.597Z,5.80
2023-05-17T23:51:40.466Z,5.55
2023-05-17T23:53:43.784Z,5.20
2023-05-17T23:55:46.876Z,5.47
2023-05-17T23:57:50.087Z,4.95
2023-05-17T23:59:53.124Z,5.28
